createdAt,value
2023-04-29T00:00:12.582Z,62.74
2023-04-29T00:02:39.629Z,62.43
2023-04-29T00:05:06.998Z,62.55
2023-04-29T00:07:33.984Z,62.52
2023-04-29T00:10:03.435Z,62.73
2023-04-29T00:12:33.489Z,62.42
2023-04-29T00:15:03.304Z,62.59
2023-04-29T00:17:30.059Z,61.93
2023-04-29T00:19:59.277Z,62.15
2023-04-29T00:22:25.927Z,62.29
2023-04-29T00:24:57.999Z,61.87
2023-04-29T00:27:27.564Z,61.74
2023-04-29T00:29:57.186Z,61.69
2023-04-29T00:32:26.283Z,61.49
2023-04-29T00:34:53.107Z,61.85
2023-04-29T00:37:19.784Z,61.39
2023-04-29T00:39:46.357Z,61.63
2023-04-29T00:42:13.079Z,61.98
2023-04-29T00:44:42.060Z,62.09
2023-04-29T00:47:11.472Z,61.98
2023-04-29T00:49:39.038Z,62.08
2023-04-29T00:52:06.590Z,61.52
2023-04-29T00:54:33.277Z,61.76
2023-04-29T00:56:59.948Z,61.09
2023-04-29T00:59:32.161Z,61.39
2023-04-29T01:02:04.162Z,61.91
2023-04-29T01:04:33.914Z,61.67
2023-04-29T01:07:15.788Z,61.68
2023-04-29T01:09:45.855Z,62.26
2023-04-29T01:12:15.028Z,62.20
2023-04-29T01:14:41.619Z,62.02
2023-04-29T01:17:13.990Z,61.95
2023-04-29T01:19:57.764Z,62.05
2023-04-29T01:22:26.541Z,62.44
2023-04-29T01:24:53.308Z,62.21
2023-04-29T01:27:30.301Z,62.82
2023-04-29T01:30:09.696Z,62.35
2023-04-29T01:32:58.636Z,62.04
2023-04-29T01:35:39.739Z,62.29
2023-04-29T01:38:18.462Z,62.61
2023-04-29T01:40:59.234Z,63.28
2023-04-29T01:43:28.399Z,63.50
2023-04-29T01:45:59.299Z,63.21
2023-04-29T01:48:26.008Z,63.64
2023-04-29T01:50:55.367Z,63.12
2023-04-29T01:53:26.502Z,63.03
2023-04-29T01:55:53.238Z,62.97
2023-04-29T01:58:28.200Z,63.46
2023-04-29T02:01:14.282Z,63.72
2023-04-29T02:03:41.561Z,63.55
2023-04-29T02:06:10.288Z,63.24
2023-04-29T02:08:41.808Z,62.97
2023-04-29T02:11:08.731Z,63.19
2023-04-29T02:13:39.721Z,63.46
2023-04-29T02:16:13.768Z,63.56
2023-04-29T02:18:56.732Z,63.33
2023-04-29T02:21:23.543Z,63.54
2023-04-29T02:23:50.758Z,63.23
2023-04-29T02:26:17.407Z,62.87
2023-04-29T02:28:44.461Z,61.96
2023-04-29T02:31:11.109Z,60.75
2023-04-29T02:33:37.693Z,59.53
2023-04-29T02:36:04.581Z,59.23
2023-04-29T02:38:34.157Z,58.55
2023-04-29T02:41:00.811Z,56.96
2023-04-29T02:43:30.934Z,55.06
2023-04-29T02:46:00.742Z,53.55
2023-04-29T02:48:27.728Z,52.64
2023-04-29T02:51:00.207Z,52.18
2023-04-29T02:53:26.930Z,52.00
2023-04-29T02:55:53.571Z,51.93
2023-04-29T02:58:20.210Z,52.30
2023-04-29T03:00:49.222Z,52.26
2023-04-29T03:03:16.212Z,52.26
2023-04-29T03:05:45.597Z,51.96
2023-04-29T03:08:12.289Z,51.87
2023-04-29T03:10:41.505Z,51.28
2023-04-29T03:13:10.972Z,51.09
2023-04-29T03:15:38.654Z,50.93
2023-04-29T03:18:06.150Z,51.32
2023-04-29T03:20:34.164Z,51.36
2023-04-29T03:23:02.869Z,50.69
2023-04-29T03:25:30.228Z,50.16
2023-04-29T03:27:57.250Z,49.52
2023-04-29T03:30:29.157Z,49.42
2023-04-29T03:32:57.612Z,49.56
2023-04-29T03:35:26.064Z,49.77
2023-04-29T03:38:23.520Z,50.37
2023-04-29T03:40:50.235Z,50.79
2023-04-29T03:43:17.675Z,51.64
2023-04-29T03:45:44.746Z,51.44
2023-04-29T03:48:15.894Z,51.56
2023-04-29T03:50:44.857Z,51.41
2023-04-29T03:53:11.969Z,51.37
2023-04-29T03:55:38.989Z,51.12
2023-04-29T03:58:05.686Z,49.73
2023-04-29T04:00:34.919Z,50.22
2023-04-29T04:03:07.797Z,49.98
2023-04-29T04:05:38.145Z,49.24
2023-04-29T04:08:09.280Z,48.77
2023-04-29T04:10:41.631Z,48.75
2023-04-29T04:13:19.764Z,47.69
2023-04-29T04:15:51.377Z,48.28
2023-04-29T04:18:18.572Z,48.59
2023-04-29T04:20:45.360Z,48.84
2023-04-29T04:23:11.992Z,48.94
2023-04-29T04:25:38.896Z,48.97
2023-04-29T04:28:25.457Z,49.66
2023-04-29T04:31:02.506Z,50.89
2023-04-29T04:33:29.343Z,52.12
2023-04-29T04:35:58.600Z,53.41
2023-04-29T04:38:28.216Z,54.28
2023-04-29T04:40:55.079Z,54.12
2023-04-29T04:43:42.881Z,54.99
2023-04-29T04:46:17.476Z,54.28
2023-04-29T04:49:00.350Z,54.59
2023-04-29T04:51:31.584Z,54.93
2023-04-29T04:53:58.156Z,53.69
2023-04-29T04:56:30.774Z,53.71
2023-04-29T04:58:59.558Z,53.74
2023-04-29T05:01:28.541Z,53.23
2023-04-29T05:03:56.153Z,52.28
2023-04-29T05:06:23.231Z,52.09
2023-04-29T05:08:50.730Z,52.04
2023-04-29T05:11:18.366Z,51.67
2023-04-29T05:13:54.157Z,51.74
2023-04-29T05:16:20.795Z,51.38
2023-04-29T05:18:54.569Z,51.10
2023-04-29T05:21:36.464Z,51.06
2023-04-29T05:24:03.268Z,50.58
2023-04-29T05:26:38.281Z,50.46
2023-04-29T05:29:08.857Z,50.86
2023-04-29T05:31:44.949Z,50.82
2023-04-29T05:34:14.082Z,50.60
2023-04-29T05:36:43.182Z,50.55
2023-04-29T05:39:09.916Z,51.15
2023-04-29T05:41:36.892Z,50.61
2023-04-29T05:44:23.821Z,50.70
2023-04-29T05:46:51.814Z,50.20
2023-04-29T05:49:19.180Z,50.48
2023-04-29T05:51:46.116Z,50.25
2023-04-29T05:54:15.831Z,50.11
2023-04-29T05:56:42.512Z,50.28
2023-04-29T05:59:09.546Z,50.27
2023-04-29T06:01:38.548Z,49.88
2023-04-29T06:04:08.611Z,50.03
2023-04-29T06:06:54.658Z,49.82
2023-04-29T06:09:37.432Z,50.19
2023-04-29T06:12:06.400Z,49.74
2023-04-29T06:14:37.662Z,49.81
2023-04-29T06:17:04.299Z,49.81
2023-04-29T06:19:33.603Z,49.85
2023-04-29T06:22:00.426Z,50.00
2023-04-29T06:24:27.123Z,50.12
2023-04-29T06:26:57.128Z,50.50
2023-04-29T06:29:27.967Z,50.33
2023-04-29T06:31:57.456Z,50.24
2023-04-29T06:34:27.132Z,49.68
2023-04-29T06:37:17.650Z,49.10
2023-04-29T06:40:05.272Z,48.76
2023-04-29T06:42:52.321Z,48.71
2023-04-29T06:46:00.732Z,48.55
2023-04-29T06:48:38.798Z,48.72
2023-04-29T06:51:08.368Z,48.37
2023-04-29T06:53:36.817Z,48.68
2023-04-29T06:56:08.315Z,48.45
2023-04-29T06:58:37.650Z,47.82
2023-04-29T07:01:04.996Z,48.02
2023-04-29T07:03:35.341Z,47.92
2023-04-29T07:06:04.952Z,48.50
2023-04-29T07:08:37.833Z,48.66
2023-04-29T07:11:08.163Z,48.05
2023-04-29T07:13:34.970Z,48.39
2023-04-29T07:16:01.907Z,48.47
2023-04-29T07:18:34.007Z,48.33
2023-04-29T07:21:01.291Z,47.77
2023-04-29T07:23:27.917Z,47.45
2023-04-29T07:25:54.583Z,47.10
2023-04-29T07:28:23.640Z,47.09
2023-04-29T07:30:59.484Z,47.61
2023-04-29T07:33:29.929Z,47.39
2023-04-29T07:35:59.034Z,47.14
2023-04-29T07:38:27.984Z,46.57
2023-04-29T07:40:54.730Z,47.04
2023-04-29T07:43:24.319Z,46.88
2023-04-29T07:45:51.323Z,46.15
2023-04-29T07:48:23.456Z,46.14
2023-04-29T07:50:50.912Z,45.26
2023-04-29T07:53:18.260Z,44.79
2023-04-29T07:55:47.715Z,44.78
2023-04-29T07:58:15.404Z,44.48
2023-04-29T08:00:45.397Z,44.33
2023-04-29T08:03:12.365Z,44.47
2023-04-29T08:05:39.363Z,43.97
2023-04-29T08:08:09.543Z,43.95
2023-04-29T08:10:41.102Z,43.38
2023-04-29T08:13:11.863Z,43.31
2023-04-29T08:15:42.045Z,43.16
2023-04-29T08:18:13.498Z,42.60
2023-04-29T08:20:40.879Z,42.72
2023-04-29T08:23:08.028Z,42.30
2023-04-29T08:25:34.687Z,41.58
2023-04-29T08:28:01.734Z,41.37
2023-04-29T08:30:31.464Z,40.28
2023-04-29T08:32:58.153Z,40.47
2023-04-29T08:35:24.896Z,40.73
2023-04-29T08:37:55.227Z,40.71
2023-04-29T08:40:27.672Z,41.19
2023-04-29T08:42:57.885Z,40.12
2023-04-29T08:45:27.417Z,40.59
2023-04-29T08:47:56.558Z,40.04
2023-04-29T08:50:28.045Z,38.86
2023-04-29T08:52:55.094Z,38.87
2023-04-29T08:55:21.969Z,38.70
2023-04-29T08:57:50.960Z,39.58
2023-04-29T09:00:20.109Z,40.14
2023-04-29T09:02:51.124Z,39.97
2023-04-29T09:05:20.169Z,39.66
2023-04-29T09:07:46.927Z,39.62
2023-04-29T09:10:13.651Z,39.66
2023-04-29T09:12:40.291Z,39.25
2023-04-29T09:15:07.303Z,38.74
2023-04-29T09:17:42.963Z,38.11
2023-04-29T09:20:22.121Z,39.03
2023-04-29T09:22:49.400Z,38.65
2023-04-29T09:25:18.669Z,38.70
2023-04-29T09:27:45.627Z,38.83
2023-04-29T09:30:17.221Z,39.17
2023-04-29T09:32:45.080Z,38.21
2023-04-29T09:35:28.406Z,38.04
2023-04-29T09:38:08.035Z,37.94
2023-04-29T09:40:43.438Z,37.58
2023-04-29T09:43:18.465Z,37.88
2023-04-29T09:45:48.432Z,36.70
2023-04-29T09:48:15.706Z,37.06
2023-04-29T09:50:45.182Z,36.74
2023-04-29T09:53:28.064Z,36.45
2023-04-29T09:55:54.740Z,35.75
2023-04-29T09:58:28.216Z,36.90
2023-04-29T10:00:54.814Z,35.96
2023-04-29T10:03:25.278Z,36.25
2023-04-29T10:06:16.254Z,36.52
2023-04-29T10:11:25.924Z,35.02
2023-04-29T10:13:55.816Z,34.88
2023-04-29T10:16:31.944Z,34.11
2023-04-29T10:19:00.204Z,34.38
2023-04-29T10:21:32.753Z,34.53
2023-04-29T10:24:03.148Z,34.18
2023-04-29T10:26:30.084Z,33.99
2023-04-29T10:29:15.204Z,33.88
2023-04-29T10:31:47.954Z,33.09
2023-04-29T10:34:24.170Z,33.60
2023-04-29T10:36:53.592Z,32.92
2023-04-29T10:39:26.647Z,33.41
2023-04-29T10:42:04.230Z,32.49
2023-04-29T10:44:41.111Z,32.25
2023-04-29T10:47:24.232Z,31.61
2023-04-29T10:50:05.011Z,30.91
2023-04-29T10:52:31.822Z,30.47
2023-04-29T10:55:07.573Z,30.27
2023-04-29T10:57:37.368Z,31.01
2023-04-29T11:00:06.819Z,30.03
2023-04-29T11:02:36.239Z,30.03
2023-04-29T11:05:14.605Z,30.44
2023-04-29T11:07:41.769Z,30.65
2023-04-29T11:10:08.499Z,30.79
2023-04-29T11:12:35.828Z,30.58
2023-04-29T11:15:19.813Z,27.89
2023-04-29T11:17:46.428Z,29.33
2023-04-29T11:20:18.951Z,30.32
2023-04-29T11:22:51.179Z,30.37
2023-04-29T11:25:23.959Z,30.29
2023-04-29T11:27:50.950Z,30.81
2023-04-29T11:30:18.106Z,30.35
2023-04-29T11:32:52.345Z,29.81
2023-04-29T11:35:24.637Z,29.54
2023-04-29T11:37:51.481Z,28.72
2023-04-29T11:40:18.352Z,28.39
2023-04-29T11:42:48.157Z,28.64
2023-04-29T11:45:21.961Z,28.49
2023-04-29T11:47:56.286Z,27.88
2023-04-29T11:50:27.657Z,28.58
2023-04-29T11:52:54.210Z,28.46
2023-04-29T11:55:20.947Z,28.27
2023-04-29T11:57:49.074Z,26.96
2023-04-29T12:00:16.946Z,26.34
2023-04-29T12:02:47.764Z,25.45
2023-04-29T12:05:19.339Z,24.81
2023-04-29T12:07:51.121Z,24.64
2023-04-29T12:10:25.074Z,24.76
2023-04-29T12:12:51.789Z,24.57
2023-04-29T12:15:18.401Z,24.92
2023-04-29T12:17:47.531Z,24.71
2023-04-29T12:20:14.169Z,24.77
2023-04-29T12:22:43.596Z,25.42
2023-04-29T12:25:10.554Z,26.36
2023-04-29T12:27:40.067Z,26.06
2023-04-29T12:30:08.278Z,25.57
2023-04-29T12:32:34.938Z,24.16
2023-04-29T12:35:01.682Z,24.34
2023-04-29T12:37:30.919Z,23.39
2023-04-29T12:39:57.631Z,23.86
2023-04-29T12:42:24.292Z,23.80
2023-04-29T12:44:56.038Z,23.57
2023-04-29T12:47:23.247Z,23.25
2023-04-29T12:49:50.144Z,24.02
2023-04-29T12:52:21.857Z,23.08
2023-04-29T12:54:48.497Z,20.74
2023-04-29T12:57:15.087Z,19.55
2023-04-29T12:59:44.023Z,18.53
2023-04-29T13:02:10.677Z,17.55
2023-04-29T13:04:38.121Z,17.29
2023-04-29T13:07:06.011Z,17.17
2023-04-29T13:09:32.733Z,18.13
2023-04-29T13:12:02.936Z,16.99
2023-04-29T13:14:32.079Z,18.87
2023-04-29T13:16:58.698Z,20.68
2023-04-29T13:19:43.366Z,21.77
2023-04-29T13:22:14.381Z,23.05
2023-04-29T13:24:43.169Z,22.66
2023-04-29T13:27:10.806Z,23.89
2023-04-29T13:29:37.493Z,24.42
2023-04-29T13:32:06.740Z,24.65
2023-04-29T13:34:33.482Z,24.65
2023-04-29T13:37:00.133Z,25.24
2023-04-29T13:39:27.102Z,25.08
2023-04-29T13:41:58.741Z,25.21
2023-04-29T13:44:42.460Z,24.51
2023-04-29T13:47:26.234Z,24.42
2023-04-29T13:50:17.314Z,25.34
2023-04-29T13:55:39.450Z,27.13
2023-04-29T14:00:45.345Z,26.49
2023-04-29T14:03:18.666Z,26.18
2023-04-29T14:05:48.188Z,26.37
2023-04-29T14:08:17.207Z,26.45
2023-04-29T14:10:43.845Z,27.31
2023-04-29T14:13:10.703Z,26.82
2023-04-29T14:15:40.354Z,27.87
2023-04-29T14:18:10.753Z,28.06
2023-04-29T14:20:37.873Z,27.33
2023-04-29T14:23:04.393Z,27.17
2023-04-29T14:25:33.053Z,27.35
2023-04-29T14:28:00.421Z,25.83
2023-04-29T14:30:29.324Z,25.92
2023-04-29T14:32:56.472Z,25.76
2023-04-29T14:35:23.188Z,26.54
2023-04-29T14:37:53.000Z,26.24
2023-04-29T14:40:22.151Z,26.23
2023-04-29T14:42:48.920Z,27.38
2023-04-29T14:45:18.025Z,27.44
2023-04-29T14:47:45.104Z,27.25
2023-04-29T14:50:11.925Z,27.27
2023-04-29T14:52:41.033Z,27.50
2023-04-29T14:55:09.030Z,28.34
2023-04-29T14:57:38.716Z,28.73
2023-04-29T15:00:08.345Z,28.80
2023-04-29T15:02:37.279Z,28.41
2023-04-29T15:05:04.997Z,29.32
2023-04-29T15:07:33.841Z,29.91
2023-04-29T15:10:00.804Z,28.09
2023-04-29T15:12:27.403Z,28.39
2023-04-29T15:14:54.248Z,29.10
2023-04-29T15:17:23.713Z,29.02
2023-04-29T15:19:53.187Z,28.94
2023-04-29T15:22:20.115Z,29.54
2023-04-29T15:27:23.354Z,29.82
2023-04-29T15:29:49.985Z,30.53
2023-04-29T15:32:16.631Z,30.52
2023-04-29T15:34:43.296Z,30.11
2023-04-29T15:37:10.011Z,30.55
2023-04-29T15:39:36.689Z,31.22
2023-04-29T15:42:03.943Z,30.83
2023-04-29T15:44:31.213Z,29.44
2023-04-29T15:46:59.984Z,29.77
2023-04-29T15:49:29.268Z,29.85
2023-04-29T15:51:56.004Z,29.52
2023-04-29T15:54:23.467Z,29.49
2023-04-29T15:56:50.857Z,29.02
2023-04-29T15:59:17.501Z,29.07
2023-04-29T16:01:46.833Z,29.59
2023-04-29T16:04:13.620Z,29.45
2023-04-29T16:06:40.974Z,29.87
2023-04-29T16:09:12.093Z,30.13
2023-04-29T16:11:38.804Z,30.83
2023-04-29T16:14:05.409Z,30.97
2023-04-29T16:16:34.447Z,31.31
2023-04-29T16:19:01.486Z,31.92
2023-04-29T16:21:28.048Z,31.99
2023-04-29T16:23:54.938Z,32.49
2023-04-29T16:26:24.908Z,33.04
2023-04-29T16:28:51.843Z,33.63
2023-04-29T16:31:20.050Z,33.50
2023-04-29T16:33:46.759Z,33.65
2023-04-29T16:36:13.853Z,33.80
2023-04-29T16:38:40.459Z,34.45
2023-04-29T16:41:09.658Z,34.32
2023-04-29T16:43:38.640Z,34.87
2023-04-29T16:46:05.329Z,35.30
2023-04-29T16:48:32.231Z,35.13
2023-04-29T16:50:59.034Z,34.85
2023-04-29T16:53:25.609Z,34.76
2023-04-29T16:55:54.674Z,35.10
2023-04-29T16:58:22.073Z,35.52
2023-04-29T17:00:48.830Z,35.77
2023-04-29T17:03:15.632Z,35.52
2023-04-29T17:05:44.429Z,34.93
2023-04-29T17:08:14.770Z,34.12
2023-04-29T17:10:41.436Z,34.81
2023-04-29T17:13:08.064Z,34.83
2023-04-29T17:15:34.616Z,34.72
2023-04-29T17:18:01.377Z,34.65
2023-04-29T17:20:28.548Z,34.66
2023-04-29T17:22:55.147Z,35.30
2023-04-29T17:25:22.564Z,35.43
2023-04-29T17:27:49.204Z,35.73
2023-04-29T17:30:15.948Z,36.03
2023-04-29T17:32:44.424Z,36.15
2023-04-29T17:35:11.635Z,36.65
2023-04-29T17:37:38.236Z,36.55
2023-04-29T17:40:05.103Z,36.80
2023-04-29T17:42:34.708Z,37.34
2023-04-29T17:45:01.316Z,37.38
2023-04-29T17:47:32.630Z,37.36
2023-04-29T17:50:02.805Z,37.44
2023-04-29T17:52:32.159Z,37.73
2023-04-29T17:54:58.769Z,37.52
2023-04-29T17:57:25.594Z,37.65
2023-04-29T17:59:53.473Z,38.30
2023-04-29T18:02:25.016Z,38.33
2023-04-29T18:04:51.652Z,38.09
2023-04-29T18:07:20.343Z,38.19
2023-04-29T18:09:49.689Z,38.45
2023-04-29T18:12:16.318Z,38.72
2023-04-29T18:14:42.878Z,38.91
2023-04-29T18:17:09.419Z,38.69
2023-04-29T18:19:36.112Z,39.38
2023-04-29T18:22:02.799Z,39.42
2023-04-29T18:24:34.298Z,40.08
2023-04-29T18:27:00.968Z,41.09
2023-04-29T18:29:27.649Z,41.21
2023-04-29T18:31:55.223Z,40.91
2023-04-29T18:34:26.622Z,41.30
2023-04-29T18:36:55.770Z,41.96
2023-04-29T18:39:22.429Z,42.09
2023-04-29T18:41:49.017Z,41.99
2023-04-29T18:44:15.621Z,42.02
2023-04-29T18:46:47.017Z,42.30
2023-04-29T18:49:17.101Z,42.35
2023-04-29T18:51:47.122Z,42.01
2023-04-29T18:54:19.010Z,42.35
2023-04-29T18:56:48.363Z,42.33
2023-04-29T18:59:21.118Z,43.23
2023-04-29T19:01:50.578Z,42.45
2023-04-29T19:04:17.242Z,42.46
2023-04-29T19:06:49.470Z,42.82
2023-04-29T19:09:16.185Z,42.78
2023-04-29T19:11:43.142Z,43.34
2023-04-29T19:14:12.150Z,43.98
2023-04-29T19:16:38.738Z,43.67
2023-04-29T19:19:07.761Z,43.50
2023-04-29T19:21:34.464Z,43.55
2023-04-29T19:24:01.207Z,43.54
2023-04-29T19:26:32.843Z,44.40
2023-04-29T19:29:03.906Z,44.63
2023-04-29T19:31:30.642Z,44.17
2023-04-29T19:34:00.157Z,43.96
2023-04-29T19:36:29.304Z,44.25
2023-04-29T19:38:55.889Z,44.20
2023-04-29T19:41:25.047Z,44.27
2023-04-29T19:43:51.651Z,44.33
2023-04-29T19:46:21.023Z,44.55
2023-04-29T19:48:50.009Z,44.83
2023-04-29T19:51:16.927Z,44.56
2023-04-29T19:53:43.709Z,44.62
2023-04-29T19:56:10.623Z,44.57
2023-04-29T19:58:37.174Z,44.51
2023-04-29T20:01:04.048Z,45.03
2023-04-29T20:03:35.776Z,45.71
2023-04-29T20:06:02.560Z,46.35
2023-04-29T20:08:29.781Z,46.63
2023-04-29T20:10:56.440Z,46.79
2023-04-29T20:13:23.042Z,47.29
2023-04-29T20:15:50.047Z,46.66
2023-04-29T20:18:19.890Z,46.28
2023-04-29T20:20:47.249Z,46.25
2023-04-29T20:23:16.742Z,46.61
2023-04-29T20:25:43.391Z,46.05
2023-04-29T20:28:10.192Z,46.12
2023-04-29T20:30:39.099Z,46.82
2023-04-29T20:33:10.771Z,46.75
2023-04-29T20:35:39.771Z,46.81
2023-04-29T20:38:07.406Z,46.78
2023-04-29T20:40:34.657Z,46.74
2023-04-29T20:43:04.735Z,47.44
2023-04-29T20:45:31.587Z,47.91
2023-04-29T20:48:00.761Z,48.03
2023-04-29T20:50:28.028Z,48.38
2023-04-29T20:52:54.636Z,47.93
2023-04-29T20:55:21.309Z,48.44
2023-04-29T20:57:47.992Z,48.43
2023-04-29T21:00:15.107Z,48.40
2023-04-29T21:02:41.726Z,48.09
2023-04-29T21:05:10.127Z,48.03
2023-04-29T21:07:37.336Z,48.30
2023-04-29T21:10:09.769Z,48.83
2023-04-29T21:12:36.560Z,48.99
2023-04-29T21:15:03.093Z,48.91
2023-04-29T21:17:29.737Z,49.13
2023-04-29T21:19:56.755Z,49.54
2023-04-29T21:22:25.788Z,48.83
2023-04-29T21:24:52.662Z,49.31
2023-04-29T21:27:21.954Z,49.05
2023-04-29T21:29:49.079Z,49.18
2023-04-29T21:32:21.554Z,49.16
2023-04-29T21:34:51.113Z,48.87
2023-04-29T21:37:18.066Z,48.64
2023-04-29T21:39:47.064Z,48.70
2023-04-29T21:42:21.297Z,49.09
2023-04-29T21:44:47.925Z,49.29
2023-04-29T21:47:14.605Z,48.81
2023-04-29T21:49:41.998Z,48.91
2023-04-29T21:52:08.893Z,48.43
2023-04-29T21:54:35.501Z,49.02
2023-04-29T21:57:03.020Z,49.05
2023-04-29T21:59:34.513Z,48.99
2023-04-29T22:02:01.498Z,49.39
2023-04-29T22:04:33.028Z,49.78
2023-04-29T22:07:01.772Z,49.52
2023-04-29T22:09:33.833Z,49.20
2023-04-29T22:12:03.059Z,49.19
2023-04-29T22:14:30.112Z,49.00
2023-04-29T22:17:01.730Z,49.30
2023-04-29T22:19:32.881Z,49.49
2023-04-29T22:22:01.706Z,49.13
2023-04-29T22:24:28.280Z,49.55
2023-04-29T22:26:54.910Z,49.39
2023-04-29T22:29:24.389Z,49.24
2023-04-29T22:31:53.486Z,48.97
2023-04-29T22:34:20.142Z,49.26
2023-04-29T22:36:49.159Z,49.49
2023-04-29T22:39:20.616Z,49.53
2023-04-29T22:41:47.244Z,49.65
2023-04-29T22:44:13.980Z,50.00
2023-04-29T22:46:40.617Z,50.38
2023-04-29T22:49:09.659Z,50.32
2023-04-29T22:51:36.427Z,50.40
2023-04-29T22:54:03.177Z,50.71
2023-04-29T22:56:29.802Z,50.37
2023-04-29T22:58:56.372Z,50.53
2023-04-29T23:01:23.437Z,51.09
2023-04-29T23:03:52.545Z,51.03
2023-04-29T23:06:19.545Z,50.53
2023-04-29T23:08:48.601Z,50.30
2023-04-29T23:11:15.303Z,50.61
2023-04-29T23:13:41.952Z,50.98
2023-04-29T23:16:10.759Z,50.45
2023-04-29T23:18:37.654Z,50.64
2023-04-29T23:21:07.250Z,51.15
2023-04-29T23:23:33.933Z,51.14
2023-04-29T23:26:00.537Z,50.86
2023-04-29T23:28:32.186Z,50.89
2023-04-29T23:30:58.760Z,50.87
2023-04-29T23:33:25.371Z,51.41
2023-04-29T23:35:54.531Z,51.01
2023-04-29T23:38:24.085Z,51.13
2023-04-29T23:40:50.723Z,51.21
2023-04-29T23:43:17.336Z,51.03
2023-04-29T23:45:44.741Z,51.28
2023-04-29T23:48:12.257Z,51.36
2023-04-29T23:50:39.006Z,51.37
2023-04-29T23:53:05.541Z,51.30
2023-04-29T23:55:32.558Z,51.45
2023-04-29T23:57:59.140Z,51.19
